Youngstown Warren Regional Airport
KYNG : now visible

Airfield :











YOU CAN JOIN US ON...

 
LOGIN :

Register | Disclaimer

   EN    FR    IT 

 









Legend :    VFR   Marginal VFR   IFR   Intensive IFR   Very Intensive IFR
Visi :
Ceiling :
>= 8 km
>= 3000ft
5 to 8 km
1000 to 3000 ft
1500m to 5 km
500 to 1000 ft
800 to 1500m
200 to 500 ft
< 800m
< 200 ft
Symbols :   Thunderstorms  Fog  Heavy snow  Heavy precipitations  Wind > 20 kt







- Airport Elevation : 1192 ft
- IATA code : YNG


KYNG - Youngstown Warren Regional

CURRENT METAR :
  • 252151Z 01015G21KT 10SM FEW180 FEW230 06/M12 A3010 RMK AO2 SLP200 T00561122

EXPIRED METARs :
  • 252051Z 35016G23KT 10SM FEW180 FEW230 07/M12 A3008 RMK AO2 SLP193 T00721117 55010
  • 251951Z 34013G21KT 10SM FEW016 BKN230 09/M09 A3008 RMK AO2 SLP191 T00891094

TAF KYNG
Valid from the 25 at 21:00 until the 26 at 18:00 UTC


252117Z 2521/2618 36014G22KT P6SM SKC
FM260000 01008KT P6SM SKC
KZOB FIR / North America



MET'MAP, your aeronautical weather chart ! - Copyright ORBIFLY December 2007 - Disclaimer

ORBIFLY MET'MAP TEAM :

Programming & Development : Alexandra Zaïnal
Concept & Development : Baudouin d'Aumeries
Co-Development & Prog : Marc-Olivier Méhu
Technical & hardware support : Manuel Goepfert

Contact : metmap@orbifly.com




SOURCES & CREDITS :

   NOAA       Earth
Advisory